createdAt,value
2018-11-13T00:01:21.912Z,50.20
2018-11-13T00:03:48.352Z,50.10
2018-11-13T00:06:15.026Z,50.20
2018-11-13T00:08:41.476Z,50.70
2018-11-13T00:11:07.919Z,50.20
2018-11-13T00:13:34.345Z,50.50
2018-11-13T00:16:00.769Z,50.10
2018-11-13T00:18:27.219Z,50.30
2018-11-13T00:20:53.684Z,50.20
2018-11-13T00:23:20.138Z,50.30
2018-11-13T00:25:46.567Z,50.30
2018-11-13T00:28:12.986Z,50.30
2018-11-13T00:30:39.456Z,50.20
2018-11-13T00:33:05.868Z,50.30
2018-11-13T00:35:32.277Z,50.30
2018-11-13T00:37:58.763Z,50.20
2018-11-13T00:40:25.202Z,50.40
2018-11-13T00:42:51.655Z,50.20
2018-11-13T00:45:18.124Z,50.30
2018-11-13T00:47:44.537Z,50.30
2018-11-13T00:50:11.229Z,50.40
2018-11-13T00:52:37.687Z,50.30
2018-11-13T00:55:04.584Z,51.10
2018-11-13T00:57:30.598Z,50.30
2018-11-13T00:59:57.131Z,50.30
2018-11-13T01:02:23.573Z,50.30
2018-11-13T01:04:50.048Z,50.20
2018-11-13T01:07:16.487Z,50.30
2018-11-13T01:09:42.941Z,50.30
2018-11-13T01:12:09.475Z,50.40
2018-11-13T01:14:35.913Z,50.50
2018-11-13T01:17:02.321Z,50.40
2018-11-13T01:19:28.780Z,50.40
2018-11-13T01:21:55.215Z,50.50
2018-11-13T01:24:21.656Z,50.40
2018-11-13T01:26:48.094Z,50.40
2018-11-13T01:29:14.539Z,50.40
2018-11-13T01:31:40.973Z,50.40
2018-11-13T01:34:07.517Z,50.30
2018-11-13T01:36:33.944Z,50.30
2018-11-13T01:39:00.395Z,50.30
2018-11-13T01:41:26.852Z,50.40
2018-11-13T01:43:53.377Z,50.30
2018-11-13T01:46:19.826Z,50.30
2018-11-13T01:48:46.290Z,50.70
2018-11-13T01:51:12.740Z,50.40
2018-11-13T01:53:39.168Z,50.30
2018-11-13T01:56:05.626Z,50.30
2018-11-13T01:58:32.150Z,50.40
2018-11-13T02:00:58.550Z,50.30
2018-11-13T02:03:24.995Z,50.30
2018-11-13T02:05:51.430Z,50.40
2018-11-13T02:08:17.882Z,51.00
2018-11-13T02:10:44.330Z,50.40
2018-11-13T02:13:11.013Z,50.40
2018-11-13T02:15:37.538Z,50.40
2018-11-13T02:18:03.972Z,50.40
2018-11-13T02:20:30.384Z,50.50
2018-11-13T02:22:56.842Z,50.30
2018-11-13T02:25:23.268Z,50.40
2018-11-13T02:27:49.998Z,50.50
2018-11-13T02:30:17.836Z,50.40
2018-11-13T02:32:44.881Z,50.40
2018-11-13T02:35:11.730Z,50.40
2018-11-13T02:37:38.086Z,50.40
2018-11-13T02:40:04.514Z,50.40
2018-11-13T02:42:31.089Z,50.30
2018-11-13T02:44:57.536Z,50.40
2018-11-13T02:47:23.958Z,50.30
2018-11-13T02:49:50.446Z,50.40
2018-11-13T02:52:16.884Z,50.30
2018-11-13T02:54:43.312Z,50.30
2018-11-13T02:57:09.816Z,50.40
2018-11-13T02:59:36.267Z,50.40
2018-11-13T03:02:02.742Z,50.30
2018-11-13T03:04:29.224Z,50.30
2018-11-13T03:06:55.697Z,50.30
2018-11-13T03:09:22.184Z,50.40
2018-11-13T03:11:48.629Z,50.40
2018-11-13T03:14:15.088Z,50.40
2018-11-13T03:16:41.521Z,50.30
2018-11-13T03:19:07.979Z,50.30
2018-11-13T03:21:34.428Z,50.30
2018-11-13T03:24:00.854Z,50.30
2018-11-13T03:26:27.286Z,50.30
2018-11-13T03:28:53.709Z,50.20
2018-11-13T03:31:20.234Z,50.30
2018-11-13T03:33:46.573Z,50.20
2018-11-13T03:36:13.031Z,50.30
2018-11-13T03:38:39.469Z,50.30
2018-11-13T03:41:05.909Z,50.20
2018-11-13T03:43:32.335Z,50.30
2018-11-13T03:45:58.787Z,50.20
2018-11-13T03:48:25.228Z,50.30
2018-11-13T03:50:51.669Z,50.20
2018-11-13T03:53:18.117Z,50.30
2018-11-13T03:55:44.569Z,50.70
2018-11-13T03:58:11.011Z,50.30
2018-11-13T04:00:37.465Z,50.30
2018-11-13T04:03:03.940Z,50.30
2018-11-13T04:05:30.365Z,50.40
2018-11-13T04:07:56.818Z,50.40
2018-11-13T04:10:24.049Z,50.40
2018-11-13T04:12:50.486Z,50.40
2018-11-13T04:15:18.300Z,50.40
2018-11-13T04:17:44.869Z,50.40
2018-11-13T04:20:12.173Z,50.40
2018-11-13T04:22:38.672Z,50.40
2018-11-13T04:25:05.111Z,50.40
2018-11-13T04:27:31.593Z,50.30
2018-11-13T04:29:58.496Z,50.20
2018-11-13T04:32:24.929Z,50.10
2018-11-13T04:34:51.367Z,50.30
2018-11-13T04:37:17.819Z,50.20
2018-11-13T04:39:44.235Z,50.20
2018-11-13T04:42:10.665Z,50.20
2018-11-13T04:44:37.104Z,50.20
2018-11-13T04:47:03.801Z,50.20
2018-11-13T04:49:30.212Z,50.10
2018-11-13T04:51:56.671Z,50.10
2018-11-13T04:54:23.095Z,50.00
2018-11-13T04:56:49.501Z,50.00
2018-11-13T04:59:15.923Z,50.00
2018-11-13T05:01:42.375Z,50.00
2018-11-13T05:04:08.785Z,49.80
2018-11-13T05:06:35.201Z,49.80
2018-11-13T05:09:01.857Z,49.80
2018-11-13T05:11:28.275Z,49.70
2018-11-13T05:13:54.724Z,49.60
2018-11-13T05:16:21.194Z,49.60
2018-11-13T05:18:47.621Z,49.50
2018-11-13T05:21:14.083Z,49.50
2018-11-13T05:23:40.545Z,49.50
2018-11-13T05:26:06.948Z,49.50
2018-11-13T05:28:33.371Z,49.50
2018-11-13T05:30:59.784Z,49.50
2018-11-13T05:33:26.249Z,49.50
2018-11-13T05:35:52.697Z,49.50
2018-11-13T05:38:19.130Z,49.50
2018-11-13T05:40:45.555Z,49.50
2018-11-13T05:43:12.055Z,49.50
2018-11-13T05:45:38.482Z,49.50
2018-11-13T05:48:04.909Z,49.50
2018-11-13T05:50:31.344Z,49.90
2018-11-13T05:52:57.767Z,49.80
2018-11-13T05:55:24.197Z,49.60
2018-11-13T05:57:50.900Z,50.00
2018-11-13T06:00:20.252Z,49.70
2018-11-13T06:02:46.696Z,49.80
2018-11-13T06:05:13.557Z,50.00
2018-11-13T06:07:40.282Z,50.00
2018-11-13T06:10:06.805Z,50.00
2018-11-13T06:12:33.335Z,50.00
2018-11-13T06:14:59.765Z,50.10
2018-11-13T06:17:26.191Z,50.10
2018-11-13T06:19:52.618Z,50.00
2018-11-13T06:22:19.053Z,50.10
2018-11-13T06:24:45.484Z,49.90
2018-11-13T06:27:11.945Z,50.00
2018-11-13T06:29:38.491Z,49.90
2018-11-13T06:32:04.945Z,50.00
2018-11-13T06:34:31.355Z,50.00
2018-11-13T06:36:57.797Z,50.20
2018-11-13T06:39:24.556Z,50.20
2018-11-13T06:41:51.014Z,50.30
2018-11-13T06:44:17.446Z,50.30
2018-11-13T06:46:43.912Z,50.30
2018-11-13T06:49:10.898Z,50.40
2018-11-13T06:51:37.338Z,50.60
2018-11-13T06:54:03.808Z,51.10
2018-11-13T06:56:30.262Z,50.50
2018-11-13T06:58:56.680Z,50.50
2018-11-13T07:01:23.111Z,50.50
2018-11-13T07:03:49.526Z,50.60
2018-11-13T07:06:16.001Z,51.20
2018-11-13T07:08:42.414Z,50.60
2018-11-13T07:11:08.855Z,50.60
2018-11-13T07:13:35.281Z,50.60
2018-11-13T07:16:01.712Z,50.60
2018-11-13T07:18:28.253Z,50.60
2018-11-13T07:20:54.607Z,50.60
2018-11-13T07:23:21.025Z,50.60
2018-11-13T07:25:47.514Z,50.70
2018-11-13T07:28:13.968Z,50.70
2018-11-13T07:30:40.429Z,50.60
2018-11-13T07:33:06.869Z,50.60
2018-11-13T07:35:33.295Z,50.60
2018-11-13T07:38:00.313Z,50.60
2018-11-13T07:40:26.784Z,50.60
2018-11-13T07:42:53.521Z,50.60
2018-11-13T07:45:20.013Z,50.30
2018-11-13T07:47:46.965Z,49.90
2018-11-13T07:50:13.814Z,49.20
2018-11-13T07:52:40.282Z,49.20
2018-11-13T07:55:06.773Z,49.40
2018-11-13T07:57:33.208Z,49.10
2018-11-13T07:59:59.700Z,48.90
2018-11-13T08:02:26.153Z,49.70
2018-11-13T08:04:52.582Z,49.10
2018-11-13T08:07:19.042Z,49.10
2018-11-13T08:09:45.439Z,49.20
2018-11-13T08:12:11.877Z,49.10
2018-11-13T08:14:38.287Z,49.20
2018-11-13T08:17:04.755Z,49.30
2018-11-13T08:19:31.210Z,49.20
2018-11-13T08:21:57.673Z,49.20
2018-11-13T08:24:24.139Z,48.60
2018-11-13T08:26:50.583Z,49.20
2018-11-13T08:29:17.121Z,49.00
2018-11-13T08:31:43.511Z,49.00
2018-11-13T08:34:10.234Z,49.00
2018-11-13T08:36:36.653Z,49.00
2018-11-13T08:39:04.201Z,48.90
2018-11-13T08:41:30.605Z,49.00
2018-11-13T08:43:57.105Z,49.00
2018-11-13T08:46:23.503Z,49.00
2018-11-13T08:48:49.959Z,48.90
2018-11-13T08:51:16.362Z,48.90
2018-11-13T08:53:42.791Z,48.90
2018-11-13T08:56:09.225Z,48.70
2018-11-13T08:58:35.768Z,49.10
2018-11-13T09:01:02.142Z,49.00
2018-11-13T09:03:28.555Z,49.10
2018-11-13T09:05:54.969Z,49.00
2018-11-13T09:08:21.499Z,49.00
2018-11-13T09:10:47.915Z,49.00
2018-11-13T09:13:14.343Z,49.00
2018-11-13T09:15:40.781Z,49.00
2018-11-13T09:18:07.306Z,49.00
2018-11-13T09:20:33.745Z,49.00
2018-11-13T09:23:00.193Z,48.90
2018-11-13T09:25:26.632Z,49.00
2018-11-13T09:27:53.088Z,49.00
2018-11-13T09:30:20.830Z,49.00
2018-11-13T09:32:47.636Z,49.10
2018-11-13T09:35:15.305Z,49.00
2018-11-13T09:37:42.144Z,49.00
2018-11-13T09:40:08.733Z,49.00
2018-11-13T09:42:35.180Z,49.00
2018-11-13T09:45:01.634Z,49.00
2018-11-13T09:47:28.071Z,49.00
2018-11-13T09:49:54.572Z,49.10
2018-11-13T09:52:21.016Z,49.10
2018-11-13T09:54:47.494Z,49.20
2018-11-13T09:57:13.907Z,49.30
2018-11-13T09:59:40.316Z,49.30
2018-11-13T10:02:07.417Z,49.30
2018-11-13T10:04:33.802Z,49.30
2018-11-13T10:06:59.660Z,49.40
2018-11-13T10:09:26.140Z,49.30
2018-11-13T10:11:52.549Z,49.20
2018-11-13T10:14:18.989Z,49.20
2018-11-13T10:16:45.472Z,49.30
2018-11-13T10:19:13.584Z,49.30
2018-11-13T10:21:40.100Z,49.20
2018-11-13T10:24:07.364Z,49.20
2018-11-13T10:26:33.865Z,49.30
2018-11-13T10:29:00.347Z,49.20
2018-11-13T10:31:27.067Z,49.20
2018-11-13T10:33:53.511Z,49.20
2018-11-13T10:36:19.966Z,49.20
2018-11-13T10:38:46.412Z,49.20
2018-11-13T10:41:12.876Z,49.20
2018-11-13T10:43:39.333Z,49.20
2018-11-13T10:46:05.920Z,49.20
2018-11-13T10:48:32.361Z,49.20
2018-11-13T10:50:58.774Z,49.20
2018-11-13T10:53:25.221Z,49.20
2018-11-13T10:55:51.664Z,49.20
2018-11-13T10:58:18.148Z,49.20
2018-11-13T11:01:54.104Z,49.90
2018-11-13T11:04:26.154Z,49.20
2018-11-13T11:06:52.570Z,49.20
2018-11-13T11:09:19.960Z,49.30
2018-11-13T11:11:46.432Z,49.40
2018-11-13T11:14:12.872Z,49.40
2018-11-13T11:16:39.320Z,49.50
2018-11-13T11:19:05.807Z,49.50
2018-11-13T11:21:32.229Z,49.50
2018-11-13T11:23:58.739Z,49.60
2018-11-13T11:26:25.245Z,49.60
2018-11-13T11:28:51.660Z,49.60
2018-11-13T11:31:18.105Z,49.60
2018-11-13T11:33:44.538Z,49.70
2018-11-13T11:36:10.999Z,49.70
2018-11-13T11:38:37.591Z,49.80
2018-11-13T11:41:04.026Z,49.80
2018-11-13T11:43:30.513Z,49.90
2018-11-13T11:45:56.978Z,49.70
2018-11-13T11:48:23.429Z,49.70
2018-11-13T11:50:49.868Z,49.80
2018-11-13T11:53:16.334Z,49.80
2018-11-13T11:55:42.802Z,49.80
2018-11-13T11:58:09.278Z,49.90
2018-11-13T12:00:35.842Z,49.90
2018-11-13T12:03:02.537Z,49.90
2018-11-13T12:05:28.973Z,49.90
2018-11-13T12:07:55.465Z,49.90
2018-11-13T12:10:21.916Z,49.90
2018-11-13T12:12:48.333Z,50.00
2018-11-13T12:15:14.759Z,50.00
2018-11-13T12:17:41.783Z,50.30
2018-11-13T12:20:08.998Z,50.00
2018-11-13T12:22:35.432Z,50.00
2018-11-13T12:25:02.030Z,50.00
2018-11-13T12:27:28.447Z,50.00
2018-11-13T12:29:54.871Z,50.00
2018-11-13T12:32:21.318Z,50.10
2018-11-13T12:34:47.787Z,50.00
2018-11-13T12:37:14.277Z,50.70
2018-11-13T12:39:40.727Z,50.10
2018-11-13T12:42:07.362Z,50.10
2018-11-13T12:44:33.776Z,50.20
2018-11-13T12:47:00.364Z,50.80
2018-11-13T12:49:26.981Z,50.00
2018-11-13T12:51:59.047Z,50.10
2018-11-13T12:54:25.518Z,50.20
2018-11-13T12:56:51.962Z,50.30
2018-11-13T12:59:18.452Z,50.20
2018-11-13T13:01:44.901Z,50.10
2018-11-13T13:04:11.361Z,50.10
2018-11-13T13:06:37.779Z,50.10
2018-11-13T13:09:04.604Z,50.10
2018-11-13T13:11:31.065Z,50.20
2018-11-13T13:14:03.118Z,50.10
2018-11-13T13:16:29.565Z,50.10
2018-11-13T13:18:56.020Z,50.10
2018-11-13T13:21:22.481Z,50.20
2018-11-13T13:23:48.914Z,50.70
2018-11-13T13:26:15.368Z,50.10
2018-11-13T13:28:41.865Z,50.20
2018-11-13T13:31:08.320Z,50.20
2018-11-13T13:33:34.879Z,50.10
2018-11-13T13:36:02.468Z,50.20
2018-11-13T13:38:29.412Z,50.20
2018-11-13T13:40:57.007Z,50.20
2018-11-13T13:43:24.079Z,50.20
2018-11-13T13:45:50.924Z,50.20
2018-11-13T13:48:17.609Z,50.30
2018-11-13T13:50:44.015Z,50.20
2018-11-13T13:53:11.704Z,50.30
2018-11-13T13:55:38.150Z,50.30
2018-11-13T13:58:04.575Z,50.30
2018-11-13T14:00:31.322Z,50.40
2018-11-13T14:02:57.771Z,50.40
2018-11-13T14:05:24.189Z,50.40
2018-11-13T14:07:50.660Z,50.50
2018-11-13T14:10:17.130Z,50.40
2018-11-13T14:12:43.571Z,50.50
2018-11-13T14:15:11.407Z,50.50
2018-11-13T14:17:37.962Z,50.40
2018-11-13T14:20:04.421Z,50.40
2018-11-13T14:22:30.847Z,50.40
2018-11-13T14:24:57.274Z,50.40
2018-11-13T14:27:23.708Z,50.50
2018-11-13T14:29:50.207Z,50.50
2018-11-13T14:32:16.796Z,50.50
2018-11-13T14:34:43.254Z,50.50
2018-11-13T14:37:09.782Z,50.40
2018-11-13T14:39:36.223Z,50.50
2018-11-13T14:42:02.686Z,49.80
2018-11-13T14:44:29.282Z,50.50
2018-11-13T14:46:55.713Z,50.50
2018-11-13T14:49:22.187Z,50.50
2018-11-13T14:51:48.637Z,50.40
2018-11-13T14:54:15.071Z,50.40
2018-11-13T14:56:41.480Z,50.50
2018-11-13T14:59:07.934Z,50.50
2018-11-13T15:01:34.508Z,50.50
2018-11-13T15:04:00.946Z,50.50
2018-11-13T15:06:27.578Z,50.50
2018-11-13T15:08:54.037Z,50.50
2018-11-13T15:11:20.455Z,50.50
2018-11-13T15:13:46.887Z,50.60
2018-11-13T15:16:13.375Z,50.70
2018-11-13T15:18:39.824Z,50.50
2018-11-13T15:21:06.254Z,50.40
2018-11-13T15:23:32.692Z,50.40
2018-11-13T15:25:59.148Z,51.00
2018-11-13T15:28:26.579Z,50.50
2018-11-13T15:30:53.036Z,50.50
2018-11-13T15:33:19.467Z,50.40
2018-11-13T15:35:46.121Z,50.50
2018-11-13T15:38:12.548Z,50.50
2018-11-13T15:40:38.974Z,50.40
2018-11-13T15:43:05.432Z,50.40
2018-11-13T15:45:31.902Z,50.30
2018-11-13T15:47:59.829Z,50.40
2018-11-13T15:50:27.584Z,50.30
2018-11-13T15:52:54.189Z,50.40
2018-11-13T15:55:20.604Z,50.50
2018-11-13T15:57:47.486Z,50.40
2018-11-13T16:00:15.496Z,50.50
2018-11-13T16:02:42.442Z,50.40
2018-11-13T16:05:08.906Z,50.40
2018-11-13T16:07:35.338Z,50.40
2018-11-13T16:10:01.837Z,50.30
2018-11-13T16:12:28.350Z,51.00
2018-11-13T16:14:56.511Z,50.30
2018-11-13T16:17:22.987Z,50.30
2018-11-13T16:19:49.412Z,50.40
2018-11-13T16:22:15.855Z,50.40
2018-11-13T16:24:42.300Z,50.30
2018-11-13T16:27:08.725Z,50.20
2018-11-13T16:29:35.207Z,50.30
2018-11-13T16:32:01.764Z,50.20
2018-11-13T16:34:28.317Z,50.20
2018-11-13T16:36:55.222Z,50.30
2018-11-13T16:39:21.637Z,50.30
2018-11-13T16:41:48.121Z,50.30
2018-11-13T16:44:14.560Z,50.30
2018-11-13T16:46:42.688Z,50.30
2018-11-13T16:49:09.147Z,50.30
2018-11-13T16:51:35.622Z,50.30
2018-11-13T16:54:02.917Z,50.30
2018-11-13T16:56:29.361Z,50.30
2018-11-13T16:58:55.833Z,50.30
2018-11-13T17:01:22.356Z,50.20
2018-11-13T17:03:48.820Z,50.20
2018-11-13T17:06:15.301Z,50.20
2018-11-13T17:08:41.683Z,50.10
2018-11-13T17:11:08.203Z,50.10
2018-11-13T17:13:34.609Z,50.10
2018-11-13T17:16:01.039Z,50.30
2018-11-13T17:18:27.491Z,50.50
2018-11-13T17:20:54.063Z,50.50
2018-11-13T17:23:20.503Z,50.40
2018-11-13T17:25:46.953Z,50.40
2018-11-13T17:28:13.389Z,50.40
2018-11-13T17:30:39.851Z,50.60
2018-11-13T17:33:06.417Z,50.70
2018-11-13T17:35:32.859Z,50.80
2018-11-13T17:38:00.091Z,50.70
2018-11-13T17:40:27.927Z,50.90
2018-11-13T17:42:55.771Z,50.90
2018-11-13T17:45:39.255Z,51.10
2018-11-13T17:48:05.744Z,51.30
2018-11-13T17:50:34.521Z,51.60
2018-11-13T17:53:01.219Z,51.80
2018-11-13T17:55:27.708Z,51.90
2018-11-13T17:57:56.749Z,51.90
2018-11-13T18:00:26.525Z,51.90
2018-11-13T18:02:53.002Z,52.00
2018-11-13T18:05:20.778Z,52.00
2018-11-13T18:07:47.565Z,51.90
2018-11-13T18:10:14.024Z,51.90
2018-11-13T18:12:40.491Z,51.90
2018-11-13T18:15:06.930Z,51.80
2018-11-13T18:17:33.379Z,51.70
2018-11-13T18:19:59.791Z,51.80
2018-11-13T18:22:26.261Z,51.90
2018-11-13T18:24:52.851Z,51.90
2018-11-13T18:27:19.347Z,51.80
2018-11-13T18:29:45.805Z,51.80
2018-11-13T18:32:12.246Z,51.80
2018-11-13T18:34:38.682Z,51.70
2018-11-13T18:37:05.095Z,51.60
2018-11-13T18:39:31.544Z,51.50
2018-11-13T18:41:58.015Z,51.50
2018-11-13T18:44:24.466Z,52.20
2018-11-13T18:46:51.445Z,51.50
2018-11-13T18:49:19.081Z,52.10
2018-11-13T18:51:45.540Z,51.50
2018-11-13T18:54:12.049Z,51.50
2018-11-13T18:56:38.512Z,51.40
2018-11-13T18:59:05.088Z,51.30
2018-11-13T19:01:31.384Z,51.30
2018-11-13T19:03:57.846Z,51.20
2018-11-13T19:06:24.269Z,51.20
2018-11-13T19:08:50.740Z,51.10
2018-11-13T19:11:17.214Z,51.00
2018-11-13T19:13:43.640Z,51.00
2018-11-13T19:16:10.155Z,50.90
2018-11-13T19:18:36.592Z,50.90
2018-11-13T19:21:03.076Z,50.90
2018-11-13T19:23:29.605Z,50.90
2018-11-13T19:25:56.052Z,50.80
2018-11-13T19:28:22.505Z,50.80
2018-11-13T19:30:48.953Z,50.70
2018-11-13T19:33:15.387Z,50.70
2018-11-13T19:35:42.024Z,50.60
2018-11-13T19:38:08.303Z,50.60
2018-11-13T19:40:35.266Z,50.50
2018-11-13T19:43:03.392Z,50.50
2018-11-13T19:45:29.902Z,50.40
2018-11-13T19:47:56.367Z,50.40
2018-11-13T19:50:25.211Z,50.40
2018-11-13T19:52:51.604Z,50.30
2018-11-13T19:55:18.765Z,51.00
2018-11-13T19:57:45.758Z,50.40
2018-11-13T20:00:16.697Z,50.40
2018-11-13T20:02:43.159Z,50.40
2018-11-13T20:05:10.742Z,50.40
2018-11-13T20:07:37.606Z,50.40
2018-11-13T20:10:04.053Z,50.40
2018-11-13T20:12:30.510Z,50.30
2018-11-13T20:14:56.936Z,50.30
2018-11-13T20:17:23.641Z,50.30
2018-11-13T20:19:50.180Z,50.40
2018-11-13T20:22:16.670Z,50.40
2018-11-13T20:24:43.220Z,50.30
2018-11-13T20:27:09.609Z,50.40
2018-11-13T20:29:36.067Z,50.40
2018-11-13T20:32:02.545Z,50.90
2018-11-13T20:34:28.967Z,50.10
2018-11-13T20:36:55.415Z,50.10
2018-11-13T20:39:22.146Z,50.10
2018-11-13T20:41:48.401Z,50.10
2018-11-13T20:44:14.831Z,50.10
2018-11-13T20:46:41.282Z,50.10
2018-11-13T20:49:07.834Z,50.00
2018-11-13T20:51:34.263Z,49.70
2018-11-13T20:54:00.721Z,50.00
2018-11-13T20:56:27.181Z,50.00
2018-11-13T20:58:53.652Z,49.90
2018-11-13T21:01:20.447Z,50.00
2018-11-13T21:03:47.018Z,49.90
2018-11-13T21:06:13.491Z,49.90
2018-11-13T21:08:39.969Z,50.60
2018-11-13T21:11:06.407Z,49.90
2018-11-13T21:13:32.871Z,49.80
2018-11-13T21:15:59.381Z,50.00
2018-11-13T21:18:26.001Z,50.00
2018-11-13T21:20:52.487Z,50.00
2018-11-13T21:23:19.040Z,50.10
2018-11-13T21:25:45.487Z,50.10
2018-11-13T21:28:12.001Z,50.20
2018-11-13T21:30:38.581Z,50.40
2018-11-13T21:33:05.007Z,50.30
2018-11-13T21:35:31.490Z,50.30
2018-11-13T21:37:58.325Z,50.30
2018-11-13T21:40:26.042Z,50.30
2018-11-13T21:42:53.070Z,50.30
2018-11-13T21:45:20.723Z,50.30
2018-11-13T21:47:47.221Z,50.30
2018-11-13T21:50:14.334Z,50.30
2018-11-13T21:52:40.733Z,50.30
2018-11-13T21:55:07.153Z,50.30
2018-11-13T21:57:33.621Z,50.30
2018-11-13T22:00:00.119Z,50.20
2018-11-13T22:02:26.602Z,50.20
2018-11-13T22:04:53.022Z,50.20
2018-11-13T22:07:19.469Z,50.20
2018-11-13T22:09:45.962Z,50.40
2018-11-13T22:12:12.433Z,50.50
2018-11-13T22:14:38.883Z,50.60
2018-11-13T22:17:05.619Z,50.70
2018-11-13T22:19:32.058Z,50.70
2018-11-13T22:21:58.480Z,50.60
2018-11-13T22:24:24.951Z,50.70
2018-11-13T22:26:51.455Z,50.70
2018-11-13T22:29:23.872Z,50.70
2018-11-13T22:31:50.314Z,50.70
2018-11-13T22:34:16.782Z,50.80
2018-11-13T22:36:43.264Z,51.40
2018-11-13T22:39:09.781Z,50.80
2018-11-13T22:41:36.241Z,50.70
2018-11-13T22:44:02.709Z,50.70
2018-11-13T22:46:29.279Z,50.70
2018-11-13T22:48:56.018Z,50.70
2018-11-13T22:51:22.446Z,50.70
2018-11-13T22:53:48.876Z,50.60
2018-11-13T22:56:15.386Z,50.70
2018-11-13T22:58:41.825Z,50.70
2018-11-13T23:01:08.290Z,50.60
2018-11-13T23:03:34.695Z,50.80
2018-11-13T23:06:01.127Z,50.60
2018-11-13T23:08:27.563Z,50.60
2018-11-13T23:10:53.991Z,50.70
2018-11-13T23:13:20.463Z,50.60
2018-11-13T23:15:46.926Z,50.60
2018-11-13T23:18:13.391Z,50.50
2018-11-13T23:20:39.814Z,50.50
2018-11-13T23:23:06.363Z,50.50
2018-11-13T23:25:32.786Z,50.50
2018-11-13T23:27:59.296Z,51.10
2018-11-13T23:30:26.803Z,50.50
2018-11-13T23:32:54.024Z,50.40
2018-11-13T23:35:20.461Z,50.40
2018-11-13T23:37:48.423Z,50.50
2018-11-13T23:40:16.322Z,50.40
2018-11-13T23:42:43.363Z,50.50
2018-11-13T23:45:10.702Z,50.40
2018-11-13T23:47:37.253Z,50.40
2018-11-13T23:50:03.680Z,50.50
2018-11-13T23:52:30.279Z,50.40
2018-11-13T23:54:56.784Z,50.40
2018-11-13T23:57:23.181Z,50.30
2018-11-13T23:59:49.515Z,50.40
